createdAt,value
2022-08-26T00:02:11.431Z,11.07
2022-08-26T00:04:39.427Z,12.85
2022-08-26T00:07:07.400Z,12.18
2022-08-26T00:09:40.284Z,10.10
2022-08-26T00:12:12.091Z,10.55
2022-08-26T00:14:41.742Z,11.57
2022-08-26T00:17:10.073Z,11.45
2022-08-26T00:19:38.361Z,12.07
2022-08-26T00:22:06.802Z,9.07
2022-08-26T00:24:34.838Z,12.68
2022-08-26T00:27:04.171Z,14.30
2022-08-26T00:29:37.488Z,11.90
2022-08-26T00:32:06.598Z,13.88
2022-08-26T00:34:35.685Z,13.32
2022-08-26T00:37:03.591Z,10.35
2022-08-26T00:39:31.506Z,10.98
2022-08-26T00:42:00.498Z,14.88
2022-08-26T00:44:29.706Z,14.15
2022-08-26T00:47:03.746Z,10.90
2022-08-26T00:49:39.046Z,9.68
2022-08-26T00:52:12.054Z,15.10
2022-08-26T00:54:46.758Z,11.32
2022-08-26T00:57:17.736Z,14.93
2022-08-26T00:59:51.665Z,13.63
2022-08-26T01:02:20.929Z,14.90
2022-08-26T01:04:54.281Z,12.60
2022-08-26T01:07:27.567Z,12.73
2022-08-26T01:10:00.815Z,11.57
2022-08-26T01:12:32.827Z,13.03
2022-08-26T01:15:03.543Z,13.45
2022-08-26T01:17:33.894Z,15.93
2022-08-26T01:20:08.903Z,11.40
2022-08-26T01:22:50.504Z,9.85
2022-08-26T01:25:22.211Z,17.55
2022-08-26T01:27:52.149Z,13.45
2022-08-26T01:30:21.027Z,13.77
2022-08-26T01:32:51.600Z,15.32
2022-08-26T01:35:20.291Z,13.68
2022-08-26T01:37:53.291Z,12.73
2022-08-26T01:40:25.676Z,17.08
2022-08-26T01:42:54.925Z,12.43
2022-08-26T01:45:26.554Z,16.48
2022-08-26T01:47:57.386Z,13.98
2022-08-26T01:50:30.633Z,13.18
2022-08-26T01:53:03.374Z,15.18
2022-08-26T01:55:34.133Z,13.98
2022-08-26T02:00:35.026Z,12.90
2022-08-26T02:03:18.060Z,12.07
2022-08-26T02:05:48.920Z,11.23
2022-08-26T02:08:24.864Z,12.88
2022-08-26T02:10:54.716Z,12.90
2022-08-26T02:13:26.431Z,11.02
2022-08-26T02:15:56.249Z,15.13
2022-08-26T02:18:26.551Z,13.40
2022-08-26T02:20:56.407Z,12.80
2022-08-26T02:23:26.242Z,13.98
2022-08-26T02:25:58.335Z,16.90
2022-08-26T02:28:29.505Z,12.55
2022-08-26T02:30:57.424Z,11.45
2022-08-26T02:33:25.624Z,14.20
2022-08-26T02:35:53.502Z,12.50
2022-08-26T02:38:21.477Z,12.35
2022-08-26T02:40:50.881Z,12.48
2022-08-26T02:43:19.054Z,13.77
2022-08-26T02:50:59.933Z,16.48
2022-08-26T02:53:27.900Z,21.73
2022-08-26T02:56:01.333Z,11.48
2022-08-26T02:58:29.285Z,16.45
2022-08-26T03:00:57.481Z,13.18
2022-08-26T03:03:26.590Z,16.70
2022-08-26T03:05:55.928Z,12.63
2022-08-26T03:08:23.933Z,16.45
2022-08-26T03:10:53.269Z,17.95
2022-08-26T03:13:22.566Z,14.30
2022-08-26T03:15:50.742Z,14.73
2022-08-26T03:18:18.648Z,12.88
2022-08-26T03:20:48.393Z,12.00
2022-08-26T03:23:16.685Z,16.25
2022-08-26T03:25:50.121Z,15.75
2022-08-26T03:28:18.203Z,12.68
2022-08-26T03:30:48.107Z,13.35
2022-08-26T03:33:17.128Z,12.45
2022-08-26T03:35:47.397Z,15.75
2022-08-26T03:38:15.747Z,16.70
2022-08-26T03:40:44.025Z,14.10
2022-08-26T03:43:13.002Z,14.30
2022-08-26T03:45:41.908Z,13.32
2022-08-26T03:48:12.449Z,13.73
2022-08-26T03:50:40.469Z,15.90
2022-08-26T03:53:12.850Z,13.10
2022-08-26T03:55:42.012Z,13.30
2022-08-26T03:58:11.639Z,15.70
2022-08-26T04:00:39.699Z,16.77
2022-08-26T04:03:09.892Z,14.85
2022-08-26T04:05:39.699Z,14.95
2022-08-26T04:08:08.876Z,17.63
2022-08-26T04:10:38.929Z,21.75
2022-08-26T04:13:07.172Z,15.80
2022-08-26T04:15:35.270Z,14.15
2022-08-26T04:18:03.162Z,16.50
2022-08-26T04:20:31.295Z,13.30
2022-08-26T04:23:00.526Z,15.00
2022-08-26T04:25:28.724Z,16.65
2022-08-26T04:27:56.828Z,15.77
2022-08-26T04:30:25.280Z,13.35
2022-08-26T04:32:53.641Z,14.70
2022-08-26T04:35:25.420Z,16.60
2022-08-26T04:37:54.133Z,17.05
2022-08-26T04:40:23.970Z,11.88
2022-08-26T04:42:53.753Z,15.50
2022-08-26T04:45:22.892Z,12.35
2022-08-26T04:47:54.631Z,17.25
2022-08-26T04:50:23.698Z,16.45
2022-08-26T04:52:52.951Z,19.55
2022-08-26T04:55:20.851Z,15.77
2022-08-26T04:57:55.112Z,15.90
2022-08-26T05:00:23.230Z,17.05
2022-08-26T05:02:51.532Z,15.73
2022-08-26T05:05:19.479Z,15.82
2022-08-26T05:07:48.775Z,16.67
2022-08-26T05:10:17.969Z,14.63
2022-08-26T05:12:46.583Z,14.48
2022-08-26T05:15:15.947Z,16.25
2022-08-26T05:17:44.223Z,17.00
2022-08-26T05:20:12.418Z,19.70
2022-08-26T05:22:40.385Z,17.58
2022-08-26T05:25:09.138Z,14.13
2022-08-26T05:27:37.010Z,17.77
2022-08-26T05:30:06.504Z,18.75
2022-08-26T05:32:35.745Z,15.98
2022-08-26T05:35:04.312Z,13.90
2022-08-26T05:37:38.339Z,14.85
2022-08-26T05:40:07.136Z,21.90
2022-08-26T05:42:36.364Z,12.63
2022-08-26T05:45:04.729Z,14.70
2022-08-26T05:47:32.692Z,17.35
2022-08-26T05:50:05.449Z,18.63
2022-08-26T05:52:33.626Z,16.67
2022-08-26T05:55:01.479Z,20.33
2022-08-26T05:57:30.015Z,18.60
2022-08-26T05:59:58.521Z,19.67
2022-08-26T06:02:26.351Z,23.98
2022-08-26T06:04:54.524Z,17.45
2022-08-26T06:07:44.072Z,20.17
2022-08-26T06:10:31.590Z,18.80
2022-08-26T06:13:09.101Z,18.52
2022-08-26T06:15:43.041Z,17.83
2022-08-26T06:18:14.106Z,23.88
2022-08-26T06:20:44.089Z,18.60
2022-08-26T06:23:45.866Z,18.80
2022-08-26T06:26:14.937Z,20.67
2022-08-26T06:28:45.391Z,19.35
2022-08-26T06:31:14.399Z,20.98
2022-08-26T06:33:42.432Z,23.15
2022-08-26T06:36:10.305Z,19.77
2022-08-26T06:38:39.808Z,19.08
2022-08-26T06:41:11.472Z,20.02
2022-08-26T06:43:39.485Z,18.77
2022-08-26T06:46:09.083Z,19.15
2022-08-26T06:48:37.482Z,20.00
2022-08-26T06:51:07.839Z,23.00
2022-08-26T06:53:36.760Z,29.25
2022-08-26T06:56:08.462Z,18.70
2022-08-26T06:58:38.835Z,20.13
2022-08-26T07:01:17.053Z,19.45
2022-08-26T07:03:46.770Z,24.95
2022-08-26T07:06:15.448Z,18.70
2022-08-26T07:08:44.501Z,19.73
2022-08-26T07:11:13.810Z,19.95
2022-08-26T07:13:41.653Z,19.60
2022-08-26T07:16:14.972Z,19.60
2022-08-26T07:18:44.779Z,20.75
2022-08-26T07:21:17.217Z,20.52
2022-08-26T07:23:46.270Z,19.50
2022-08-26T07:26:18.751Z,17.85
2022-08-26T07:28:48.438Z,19.23
2022-08-26T07:31:17.648Z,15.32
2022-08-26T07:33:46.021Z,16.30
2022-08-26T07:36:15.819Z,17.10
2022-08-26T07:38:45.254Z,17.55
2022-08-26T07:41:14.600Z,21.50
2022-08-26T07:43:44.045Z,18.45
2022-08-26T07:46:16.476Z,16.10
2022-08-26T07:48:46.223Z,14.38
2022-08-26T07:51:15.324Z,15.77
2022-08-26T07:53:44.285Z,15.57
2022-08-26T07:56:16.233Z,17.77
2022-08-26T07:58:48.992Z,15.38
2022-08-26T08:01:19.561Z,18.10
2022-08-26T08:03:48.053Z,20.83
2022-08-26T08:06:18.665Z,19.73
2022-08-26T08:08:47.601Z,18.85
2022-08-26T08:11:20.448Z,19.60
2022-08-26T08:13:52.419Z,19.63
2022-08-26T08:16:25.073Z,21.13
2022-08-26T08:18:54.428Z,15.82
2022-08-26T08:21:24.352Z,15.10
2022-08-26T08:23:53.606Z,18.40
2022-08-26T08:26:21.986Z,21.63
2022-08-26T08:28:52.150Z,19.35
2022-08-26T08:34:09.033Z,25.40
2022-08-26T08:36:36.949Z,17.58
2022-08-26T08:39:04.841Z,20.58
2022-08-26T08:41:54.563Z,20.58
2022-08-26T08:46:59.683Z,26.33
2022-08-26T08:49:29.304Z,19.77
2022-08-26T08:52:02.782Z,21.30
2022-08-26T08:54:33.932Z,18.17
2022-08-26T08:57:11.160Z,14.93
2022-08-26T08:59:53.225Z,17.90
2022-08-26T09:02:29.300Z,17.13
2022-08-26T09:05:22.417Z,22.65
2022-08-26T09:07:54.579Z,14.52
2022-08-26T09:10:36.575Z,19.20
2022-08-26T09:13:07.939Z,15.63
2022-08-26T09:15:47.932Z,20.23
2022-08-26T09:18:28.947Z,17.25
2022-08-26T09:21:00.229Z,17.80
2022-08-26T09:23:28.173Z,21.35
2022-08-26T09:25:58.648Z,20.88
2022-08-26T09:28:29.171Z,17.50
2022-08-26T09:31:11.475Z,14.82
2022-08-26T09:33:41.480Z,18.38
2022-08-26T09:36:16.341Z,16.77
2022-08-26T09:38:44.825Z,16.77
2022-08-26T09:41:31.646Z,18.27
2022-08-26T09:44:18.950Z,19.00
2022-08-26T09:46:55.673Z,15.75
2022-08-26T09:49:35.775Z,19.65
2022-08-26T09:52:08.473Z,20.13
2022-08-26T09:54:39.005Z,21.58
2022-08-26T09:57:25.812Z,21.20
2022-08-26T09:59:54.066Z,16.75
2022-08-26T10:02:41.455Z,18.17
2022-08-26T10:05:19.058Z,18.10
2022-08-26T10:07:50.720Z,22.38
2022-08-26T10:10:24.019Z,15.60
2022-08-26T10:12:59.953Z,17.15
2022-08-26T10:15:29.081Z,11.63
2022-08-26T10:18:05.517Z,21.10
2022-08-26T10:20:37.080Z,15.25
2022-08-26T10:23:11.049Z,16.20
2022-08-26T10:25:46.489Z,17.88
2022-08-26T10:28:23.567Z,16.33
2022-08-26T10:30:57.179Z,20.15
2022-08-26T10:33:26.476Z,19.35
2022-08-26T10:35:58.419Z,14.02
2022-08-26T10:38:31.007Z,16.50
2022-08-26T10:41:10.410Z,14.38
2022-08-26T10:43:43.360Z,20.90
2022-08-26T10:46:17.208Z,19.95
2022-08-26T10:48:52.131Z,16.60
2022-08-26T10:51:26.557Z,20.33
2022-08-26T10:53:59.899Z,16.98
2022-08-26T10:56:43.047Z,18.67
2022-08-26T10:59:24.713Z,15.45
2022-08-26T11:02:06.381Z,17.67
2022-08-26T11:04:48.243Z,13.85
2022-08-26T11:07:38.062Z,19.17
2022-08-26T11:10:09.450Z,19.37
2022-08-26T11:12:58.881Z,15.65
2022-08-26T11:16:01.093Z,18.38
2022-08-26T11:18:48.611Z,13.50
2022-08-26T11:21:49.510Z,19.00
2022-08-26T11:25:11.394Z,16.65
2022-08-26T11:27:57.267Z,18.05
2022-08-26T11:30:56.913Z,20.00
2022-08-26T11:33:59.919Z,18.60
2022-08-26T11:36:59.745Z,14.27
2022-08-26T11:39:36.801Z,17.05
2022-08-26T11:42:29.456Z,21.10
2022-08-26T11:44:59.880Z,16.17
2022-08-26T11:47:32.872Z,16.50
2022-08-26T11:50:13.866Z,11.75
2022-08-26T11:52:52.013Z,16.48
2022-08-26T11:55:20.380Z,16.08
2022-08-26T11:57:54.793Z,13.40
2022-08-26T12:00:25.301Z,15.23
2022-08-26T12:02:55.574Z,13.48
2022-08-26T12:05:30.897Z,14.23
2022-08-26T12:08:07.334Z,13.68
2022-08-26T12:10:36.477Z,10.15
2022-08-26T12:13:07.198Z,16.67
2022-08-26T12:15:36.746Z,17.45
2022-08-26T12:18:29.206Z,17.27
2022-08-26T12:21:01.227Z,13.00
2022-08-26T12:23:41.115Z,17.63
2022-08-26T12:26:12.622Z,25.05
2022-08-26T12:28:45.181Z,16.88
2022-08-26T12:31:13.174Z,17.48
2022-08-26T12:33:45.556Z,14.25
2022-08-26T12:36:13.992Z,17.20
2022-08-26T12:38:43.339Z,16.98
2022-08-26T12:41:11.175Z,15.82
2022-08-26T12:43:44.441Z,17.35
2022-08-26T12:46:15.484Z,14.10
2022-08-26T12:48:45.713Z,15.98
2022-08-26T12:51:25.165Z,18.52
2022-08-26T12:53:55.326Z,16.50
2022-08-26T12:56:28.573Z,16.25
2022-08-26T12:59:06.005Z,15.30
2022-08-26T13:01:40.218Z,18.80
2022-08-26T13:04:08.612Z,18.38
2022-08-26T13:06:36.508Z,17.35
2022-08-26T13:09:26.915Z,16.80
2022-08-26T13:12:00.309Z,13.23
2022-08-26T13:14:31.510Z,20.15
2022-08-26T13:16:59.730Z,20.38
2022-08-26T13:19:28.104Z,13.93
2022-08-26T13:21:58.404Z,17.02
2022-08-26T13:24:32.235Z,9.20
2022-08-26T13:27:00.722Z,12.52
2022-08-26T13:29:29.814Z,7.32
2022-08-26T13:31:59.039Z,12.38
2022-08-26T13:34:28.248Z,7.15
2022-08-26T13:36:58.159Z,12.83
2022-08-26T13:39:27.726Z,15.23
2022-08-26T13:41:55.968Z,11.85
2022-08-26T13:44:23.871Z,12.40
2022-08-26T13:46:52.277Z,11.60
2022-08-26T13:49:20.139Z,8.65
2022-08-26T13:51:48.004Z,9.10
2022-08-26T13:54:16.220Z,8.77
2022-08-26T13:56:46.049Z,4.63
2022-08-26T13:59:13.972Z,7.93
2022-08-26T14:01:42.154Z,9.00
2022-08-26T14:04:10.240Z,7.78
2022-08-26T14:06:38.448Z,6.50
2022-08-26T14:09:06.388Z,11.55
2022-08-26T14:11:41.235Z,9.63
2022-08-26T14:14:20.183Z,9.65
2022-08-26T14:16:58.633Z,9.70
2022-08-26T14:19:27.272Z,11.13
2022-08-26T14:21:55.328Z,9.75
2022-08-26T14:24:23.679Z,9.93
2022-08-26T14:26:51.582Z,10.15
2022-08-26T14:29:20.954Z,11.88
2022-08-26T14:31:49.179Z,11.88
2022-08-26T14:34:17.147Z,7.07
2022-08-26T14:36:45.022Z,11.98
2022-08-26T14:39:14.712Z,17.13
2022-08-26T14:41:54.362Z,14.07
2022-08-26T14:44:28.583Z,12.55
2022-08-26T14:46:56.863Z,16.98
2022-08-26T14:49:27.234Z,17.67
2022-08-26T14:51:56.393Z,13.23
2022-08-26T14:54:23.439Z,18.98
2022-08-26T14:56:54.881Z,13.63
2022-08-26T14:59:27.344Z,10.75
2022-08-26T15:01:56.303Z,11.10
2022-08-26T15:04:25.685Z,9.27
2022-08-26T15:06:54.299Z,12.07
2022-08-26T15:09:22.654Z,10.93
2022-08-26T15:11:50.701Z,13.23
2022-08-26T15:14:20.092Z,11.68
2022-08-26T15:16:50.927Z,13.88
2022-08-26T15:19:20.763Z,11.15
2022-08-26T15:21:49.081Z,11.70
2022-08-26T15:24:19.166Z,12.02
2022-08-26T15:29:16.369Z,12.07
2022-08-26T15:31:44.477Z,8.68
2022-08-26T15:34:16.803Z,9.35
2022-08-26T15:36:46.743Z,10.75
2022-08-26T15:39:15.584Z,12.50
2022-08-26T15:41:43.791Z,12.15
2022-08-26T15:44:13.740Z,10.60
2022-08-26T15:46:42.112Z,13.77
2022-08-26T15:49:17.535Z,8.80
2022-08-26T15:51:50.315Z,14.85
2022-08-26T15:54:21.524Z,13.27
2022-08-26T15:56:52.428Z,12.57
2022-08-26T15:59:22.670Z,11.77
2022-08-26T16:01:50.950Z,9.15
2022-08-26T16:04:19.288Z,7.47
2022-08-26T16:06:50.307Z,11.38
2022-08-26T16:09:18.906Z,9.65
2022-08-26T16:11:46.825Z,11.68
2022-08-26T16:14:14.829Z,10.10
2022-08-26T16:16:42.727Z,11.38
2022-08-26T16:19:11.553Z,10.13
2022-08-26T16:21:41.512Z,5.93
2022-08-26T16:24:11.655Z,10.15
2022-08-26T16:26:41.482Z,7.88
2022-08-26T16:29:12.226Z,13.65
2022-08-26T16:31:40.424Z,11.18
2022-08-26T16:34:09.568Z,12.38
2022-08-26T16:36:39.184Z,9.85
2022-08-26T16:39:08.642Z,9.70
2022-08-26T16:41:37.915Z,7.57
2022-08-26T16:44:06.936Z,14.27
2022-08-26T16:46:35.541Z,10.48
2022-08-26T16:49:04.666Z,13.07
2022-08-26T16:51:38.180Z,12.20
2022-08-26T16:54:08.288Z,11.60
2022-08-26T16:56:38.650Z,14.88
2022-08-26T16:59:09.422Z,17.05
2022-08-26T17:01:37.473Z,20.23
2022-08-26T17:04:05.450Z,16.52
2022-08-26T17:06:34.005Z,10.05
2022-08-26T17:09:01.865Z,13.57
2022-08-26T17:11:29.700Z,13.27
2022-08-26T17:13:59.223Z,18.13
2022-08-26T17:16:27.757Z,15.95
2022-08-26T17:18:56.850Z,11.90
2022-08-26T17:21:25.311Z,14.00
2022-08-26T17:23:53.540Z,15.77
2022-08-26T17:26:21.620Z,13.57
2022-08-26T17:28:50.057Z,7.60
2022-08-26T17:31:19.895Z,15.38
2022-08-26T17:33:53.859Z,9.82
2022-08-26T17:36:28.161Z,12.27
2022-08-26T17:38:57.280Z,6.78
2022-08-26T17:41:26.371Z,6.50
2022-08-26T17:43:54.436Z,10.05
2022-08-26T17:46:23.903Z,9.98
2022-08-26T17:48:52.048Z,7.90
2022-08-26T17:51:20.814Z,10.00
2022-08-26T17:53:49.718Z,6.47
2022-08-26T17:56:20.554Z,8.35
2022-08-26T17:58:51.827Z,8.52
2022-08-26T18:01:20.153Z,11.30
2022-08-26T18:03:50.236Z,14.93
2022-08-26T18:06:18.205Z,13.63
2022-08-26T18:08:46.403Z,13.43
2022-08-26T18:11:16.504Z,8.02
2022-08-26T18:13:46.051Z,15.30
2022-08-26T18:16:17.283Z,22.95
2022-08-26T18:18:45.427Z,13.15
2022-08-26T18:21:17.700Z,17.52
2022-08-26T18:23:46.785Z,16.40
2022-08-26T18:26:18.120Z,20.73
2022-08-26T18:28:46.636Z,11.68
2022-08-26T18:31:15.454Z,15.65
2022-08-26T18:33:45.019Z,11.70
2022-08-26T18:36:19.476Z,15.53
2022-08-26T18:38:50.439Z,14.93
2022-08-26T18:41:20.860Z,17.25
2022-08-26T18:43:51.253Z,17.70
2022-08-26T18:46:22.541Z,19.92
2022-08-26T18:48:51.311Z,9.43
2022-08-26T18:51:24.152Z,0.00
2022-08-26T18:53:52.625Z,0.00
2022-08-26T18:56:21.069Z,0.80
2022-08-26T18:58:49.445Z,0.10
2022-08-26T19:01:18.875Z,0.10
2022-08-26T19:03:47.695Z,0.00
2022-08-26T19:06:16.421Z,0.00
2022-08-26T19:08:46.261Z,0.15
2022-08-26T19:11:31.985Z,0.00
2022-08-26T19:14:01.314Z,0.00
2022-08-26T19:16:30.446Z,0.38
2022-08-26T19:19:00.601Z,0.00
2022-08-26T19:21:29.720Z,0.00
2022-08-26T19:24:00.030Z,0.00
2022-08-26T19:26:28.354Z,0.10
2022-08-26T19:28:57.277Z,0.00
2022-08-26T19:31:25.324Z,0.20
2022-08-26T19:33:53.617Z,0.30
2022-08-26T19:36:24.835Z,0.00
2022-08-26T19:38:53.599Z,0.85
2022-08-26T19:41:31.669Z,0.20
2022-08-26T19:44:08.163Z,0.00
2022-08-26T19:49:08.310Z,0.00
2022-08-26T19:51:37.539Z,0.00
2022-08-26T19:54:06.319Z,0.10
2022-08-26T19:56:36.522Z,0.00
2022-08-26T19:59:04.524Z,1.25
2022-08-26T20:01:32.604Z,0.00
2022-08-26T20:04:00.491Z,0.00
2022-08-26T20:06:28.368Z,0.00
2022-08-26T20:08:56.472Z,0.35
2022-08-26T20:11:25.304Z,0.00
2022-08-26T20:13:55.216Z,0.10
2022-08-26T20:16:23.230Z,0.65
2022-08-26T20:19:08.562Z,0.05
2022-08-26T20:21:39.362Z,0.00
2022-08-26T20:24:10.511Z,0.00
2022-08-26T20:26:40.607Z,0.00
2022-08-26T20:29:11.657Z,0.38
2022-08-26T20:31:40.320Z,0.00
2022-08-26T20:34:08.454Z,0.00
2022-08-26T20:36:38.191Z,0.00
2022-08-26T20:39:06.581Z,0.00
2022-08-26T20:41:34.533Z,0.85
2022-08-26T20:44:03.062Z,0.00
2022-08-26T20:46:34.624Z,3.88
2022-08-26T20:49:02.905Z,0.20
2022-08-26T20:51:34.782Z,0.00
2022-08-26T20:54:02.635Z,0.00
2022-08-26T20:56:30.448Z,0.00
2022-08-26T20:59:00.945Z,0.00
2022-08-26T21:04:06.176Z,0.00
2022-08-26T21:06:35.182Z,0.95
2022-08-26T21:09:05.005Z,0.00
2022-08-26T21:11:33.167Z,0.00
2022-08-26T21:14:06.797Z,0.00
2022-08-26T21:16:44.229Z,0.05
2022-08-26T21:19:15.496Z,0.20
2022-08-26T21:21:44.432Z,0.00
2022-08-26T21:24:13.082Z,0.43
2022-08-26T21:26:41.212Z,0.00
2022-08-26T21:29:10.477Z,0.00
2022-08-26T21:31:44.929Z,1.58
2022-08-26T21:34:15.705Z,0.00
2022-08-26T21:36:43.693Z,0.00
2022-08-26T21:39:12.418Z,0.00
2022-08-26T21:41:40.718Z,0.00
2022-08-26T21:44:09.450Z,0.05
2022-08-26T21:46:37.652Z,0.10
2022-08-26T21:49:10.898Z,0.00
2022-08-26T21:51:42.839Z,0.10
2022-08-26T21:54:11.676Z,1.55
2022-08-26T21:56:42.064Z,1.55
2022-08-26T21:59:10.677Z,0.00
2022-08-26T22:01:38.849Z,0.57
2022-08-26T22:04:08.994Z,0.00
2022-08-26T22:06:43.869Z,0.00
2022-08-26T22:09:13.221Z,0.65
2022-08-26T22:11:42.017Z,6.03
2022-08-26T22:14:10.349Z,0.00
2022-08-26T22:16:38.287Z,0.08
2022-08-26T22:19:06.358Z,0.00
2022-08-26T22:21:35.711Z,0.00
2022-08-26T22:24:07.073Z,1.65
2022-08-26T22:26:35.670Z,0.00
2022-08-26T22:29:04.775Z,0.00
2022-08-26T22:31:38.035Z,0.10
2022-08-26T22:34:08.543Z,0.40
2022-08-26T22:36:39.812Z,5.43
2022-08-26T22:39:14.517Z,0.00
2022-08-26T22:41:43.108Z,0.10
2022-08-26T22:44:11.725Z,0.00
2022-08-26T22:46:40.955Z,0.00
2022-08-26T22:49:09.494Z,0.00
2022-08-26T22:51:37.398Z,0.00
2022-08-26T22:54:06.425Z,0.00
2022-08-26T22:56:36.634Z,0.30
2022-08-26T22:59:05.203Z,0.00
2022-08-26T23:01:36.187Z,0.05
2022-08-26T23:04:05.338Z,0.00
2022-08-26T23:06:33.339Z,9.10
2022-08-26T23:09:01.198Z,0.00
2022-08-26T23:11:29.116Z,0.00
2022-08-26T23:13:58.389Z,0.00
2022-08-26T23:16:29.467Z,0.03
2022-08-26T23:19:06.838Z,0.00
2022-08-26T23:21:35.185Z,0.00
2022-08-26T23:24:03.212Z,0.35
2022-08-26T23:26:31.892Z,0.00
2022-08-26T23:29:01.434Z,0.00
2022-08-26T23:31:29.457Z,0.00
2022-08-26T23:34:14.923Z,0.00
2022-08-26T23:36:43.348Z,0.32
2022-08-26T23:39:14.134Z,0.00
2022-08-26T23:41:42.215Z,0.00
2022-08-26T23:44:12.324Z,0.10
2022-08-26T23:46:40.318Z,0.00
2022-08-26T23:49:08.266Z,0.00
2022-08-26T23:51:54.096Z,0.00
2022-08-26T23:54:22.222Z,0.57
2022-08-26T23:56:50.373Z,0.25
2022-08-26T23:59:19.651Z,0.00
